Time;durP1;ratioP1;P1;durP2;ratioP2;P2;SDS_P1;SDS_P2;PMS_P1;PMS_P2;Temp;Humidity;BMP_temperature;BMP_pressure;BME280_temperature;BME280_humidity;BME280_pressure;Samples;Min_cycle;Max_cycle;Signal;HPM_P1;HPM_P2
2023/11/06 00:00:40;;;;;;;3.50;1.50;;;11.00;99.90;;;;;;2057181;28;20061;-74
2023/11/06 00:01:41;;;;;;;2.45;1.40;;;10.90;99.90;;;;;;2057307;28;20484;-73
2023/11/06 00:02:41;;;;;;;2.33;1.23;;;10.90;99.90;;;;;;2049636;28;20027;-74
2023/11/06 00:03:42;;;;;;;2.45;1.50;;;10.90;99.90;;;;;;2059413;28;20275;-74
2023/11/06 00:04:42;;;;;;;3.03;1.80;;;10.90;99.90;;;;;;2064462;28;20072;-74
2023/11/06 00:05:43;;;;;;;2.58;1.55;;;10.80;99.90;;;;;;2050896;28;20137;-74
2023/11/06 00:06:43;;;;;;;2.90;1.50;;;10.80;99.90;;;;;;2056311;28;20114;-74
2023/11/06 00:07:44;;;;;;;2.85;1.50;;;10.90;99.90;;;;;;2061948;28;20030;-75
2023/11/06 00:08:45;;;;;;;2.83;1.60;;;10.80;99.90;;;;;;2065055;28;20214;-73
2023/11/06 00:09:45;;;;;;;2.60;1.40;;;10.80;99.90;;;;;;2057913;28;20030;-74
2023/11/06 00:10:46;;;;;;;3.15;1.42;;;10.80;99.90;;;;;;2055691;28;20598;-74
2023/11/06 00:11:46;;;;;;;2.55;1.50;;;10.80;99.90;;;;;;2064918;28;20535;-74
2023/11/06 00:12:47;;;;;;;2.90;1.60;;;10.70;99.90;;;;;;2062275;28;20496;-74
2023/11/06 00:13:47;;;;;;;3.28;1.60;;;10.70;99.90;;;;;;2062343;28;20064;-74
2023/11/06 00:14:48;;;;;;;4.85;1.63;;;10.70;99.90;;;;;;2054805;28;20258;-74
2023/11/06 00:15:48;;;;;;;4.63;1.80;;;10.70;99.90;;;;;;2057321;28;20214;-74
2023/11/06 00:16:51;;;;;;;2.58;1.45;;;10.70;99.90;;;;;;2051020;28;20039;-74
2023/11/06 00:17:51;;;;;;;4.70;1.63;;;10.70;99.90;;;;;;2057812;28;20139;-74
2023/11/06 00:18:52;;;;;;;2.25;1.52;;;10.70;99.90;;;;;;2065908;28;20026;-73
2023/11/06 00:19:53;;;;;;;3.15;1.30;;;10.70;99.90;;;;;;2064161;28;20029;-73
2023/11/06 00:20:53;;;;;;;4.78;1.58;;;10.70;99.90;;;;;;2055918;28;20252;-74
2023/11/06 00:21:54;;;;;;;3.40;1.75;;;10.70;99.90;;;;;;2047343;28;20058;-74
2023/11/06 00:22:54;;;;;;;4.25;1.52;;;10.70;99.90;;;;;;2056632;28;20030;-74
2023/11/06 00:23:55;;;;;;;3.33;1.50;;;10.70;99.90;;;;;;2065255;28;20522;-74
2023/11/06 00:24:56;;;;;;;3.30;1.45;;;10.70;99.90;;;;;;2063064;28;20166;-74
2023/11/06 00:25:57;;;;;;;5.10;1.67;;;10.70;99.90;;;;;;2065087;28;20040;-75
2023/11/06 00:26:58;;;;;;;5.15;1.35;;;10.70;99.90;;;;;;2065458;28;20316;-75
2023/11/06 00:27:58;;;;;;;2.53;1.45;;;10.70;99.90;;;;;;2057723;28;20034;-75
2023/11/06 00:29:00;;;;;;;4.15;1.63;;;10.70;99.90;;;;;;2058054;28;20493;-75
2023/11/06 00:30:01;;;;;;;2.65;1.42;;;10.60;99.90;;;;;;2065927;28;20103;-75
2023/11/06 00:31:01;;;;;;;2.15;1.40;;;10.60;99.90;;;;;;2062516;28;20084;-75
2023/11/06 00:32:03;;;;;;;3.67;1.60;;;10.60;99.90;;;;;;2065678;28;20084;-74
2023/11/06 00:33:03;;;;;;;3.08;1.63;;;10.60;99.90;;;;;;2057616;28;20146;-75
2023/11/06 00:34:04;;;;;;;3.28;1.30;;;10.60;99.90;;;;;;2057975;28;20027;-75
2023/11/06 00:35:06;;;;;;;3.58;1.30;;;10.60;99.90;;;;;;2060948;28;20042;-73
2023/11/06 00:36:17;;;;;;;3.40;1.67;;;10.60;99.90;;;;;;2066805;28;20018;-72
2023/11/06 00:37:18;;;;;;;2.08;1.50;;;10.70;99.90;;;;;;2065489;28;20018;-74
2023/11/06 00:38:20;;;;;;;2.22;1.40;;;10.70;99.90;;;;;;2057396;28;20045;-74
2023/11/06 00:39:20;;;;;;;3.92;1.63;;;10.70;99.90;;;;;;2054631;28;20019;-74
2023/11/06 00:40:21;;;;;;;3.10;1.40;;;10.70;99.90;;;;;;2066530;28;20068;-75
2023/11/06 00:41:21;;;;;;;3.03;1.42;;;10.70;99.90;;;;;;2066270;28;20082;-73
2023/11/06 00:42:22;;;;;;;2.28;1.30;;;10.70;99.90;;;;;;2054276;28;20018;-75
2023/11/06 00:43:23;;;;;;;4.82;1.48;;;10.70;99.90;;;;;;2046247;28;20030;-74
2023/11/06 00:44:23;;;;;;;5.13;1.60;;;10.70;99.90;;;;;;2057933;28;20109;-74
2023/11/06 00:45:24;;;;;;;3.70;1.60;;;10.70;99.90;;;;;;2065869;28;20022;-73
2023/11/06 00:46:25;;;;;;;3.92;1.30;;;10.70;99.90;;;;;;2063229;28;20038;-74
2023/11/06 00:47:25;;;;;;;3.50;1.48;;;10.80;99.90;;;;;;2056851;28;20570;-73
2023/11/06 00:48:26;;;;;;;2.95;1.40;;;10.80;99.90;;;;;;2050821;28;22533;-74
2023/11/06 00:49:27;;;;;;;5.60;1.58;;;10.80;99.90;;;;;;2059707;28;20077;-74
2023/11/06 00:50:27;;;;;;;2.92;1.30;;;10.80;99.90;;;;;;2058256;28;20117;-74
2023/11/06 00:51:28;;;;;;;2.28;1.38;;;10.80;99.90;;;;;;2058222;28;20026;-73
2023/11/06 00:52:28;;;;;;;3.53;1.38;;;10.70;99.90;;;;;;2055740;28;20034;-73
2023/11/06 00:53:30;;;;;;;3.35;1.50;;;10.80;99.90;;;;;;2050362;28;20031;-74
2023/11/06 00:54:31;;;;;;;3.83;1.42;;;10.80;99.90;;;;;;2057588;28;20096;-73
2023/11/06 00:55:31;;;;;;;3.72;1.48;;;10.70;99.90;;;;;;2057750;28;20469;-73
2023/11/06 00:56:32;;;;;;;4.28;1.50;;;10.70;99.90;;;;;;2060918;28;20030;-74
2023/11/06 00:57:32;;;;;;;2.15;1.30;;;10.70;99.90;;;;;;2057967;28;20030;-73
2023/11/06 00:58:33;;;;;;;5.25;1.40;;;10.70;99.90;;;;;;2065947;28;20480;-74
2023/11/06 00:59:34;;;;;;;3.30;1.60;;;10.70;99.90;;;;;;2059233;28;20117;-74
2023/11/06 01:00:34;;;;;;;4.22;1.42;;;10.70;99.90;;;;;;2062469;28;20523;-73
2023/11/06 01:01:35;;;;;;;2.80;1.30;;;10.70;99.90;;;;;;2061607;28;20077;-73
2023/11/06 01:02:37;;;;;;;4.57;1.27;;;10.70;99.90;;;;;;2057537;28;20721;-74
2023/11/06 01:03:38;;;;;;;2.75;1.52;;;10.70;99.90;;;;;;2057647;28;20034;-73
2023/11/06 01:04:38;;;;;;;3.50;1.40;;;10.70;99.90;;;;;;2057484;28;20084;-73
2023/11/06 01:05:39;;;;;;;2.58;1.27;;;10.70;99.90;;;;;;2062740;28;20397;-73
2023/11/06 01:06:40;;;;;;;2.17;1.40;;;10.70;99.90;;;;;;2066519;28;20496;-74
2023/11/06 01:07:41;;;;;;;2.78;1.30;;;10.60;99.90;;;;;;2057773;28;20576;-75
2023/11/06 01:08:42;;;;;;;3.15;1.35;;;10.70;99.90;;;;;;2057335;28;20072;-75
2023/11/06 01:09:42;;;;;;;2.40;1.40;;;10.70;99.90;;;;;;2059503;28;20484;-75
2023/11/06 01:10:43;;;;;;;3.63;1.48;;;10.70;99.90;;;;;;2065521;28;20684;-74
2023/11/06 01:11:48;;;;;;;2.80;1.30;;;10.70;99.90;;;;;;2066113;28;20018;-75
2023/11/06 01:12:48;;;;;;;3.03;1.55;;;10.70;99.90;;;;;;2053645;28;20444;-75
2023/11/06 01:13:49;;;;;;;3.70;1.50;;;10.70;99.90;;;;;;2045604;28;20046;-74
2023/11/06 01:14:50;;;;;;;5.05;1.40;;;10.70;99.90;;;;;;2051393;28;20109;-74
2023/11/06 01:15:51;;;;;;;2.53;1.40;;;10.70;99.90;;;;;;2055503;28;20089;-75
2023/11/06 01:16:53;;;;;;;2.70;1.60;;;10.70;99.90;;;;;;2055958;28;20097;-74
2023/11/06 01:17:53;;;;;;;3.58;1.35;;;10.70;99.90;;;;;;2062814;28;20523;-73
2023/11/06 01:18:54;;;;;;;2.65;1.40;;;10.70;99.90;;;;;;2064020;28;20032;-74
2023/11/06 01:19:54;;;;;;;1.92;1.30;;;10.70;99.90;;;;;;2065748;28;20583;-74
2023/11/06 01:20:55;;;;;;;4.72;1.30;;;10.70;99.90;;;;;;2049747;28;20134;-74
2023/11/06 01:21:55;;;;;;;3.85;1.30;;;10.70;99.90;;;;;;2056295;28;21151;-75
2023/11/06 01:22:56;;;;;;;5.60;1.63;;;10.70;99.90;;;;;;2057537;28;20097;-74
2023/11/06 01:23:57;;;;;;;3.55;1.40;;;10.70;99.90;;;;;;2048898;28;20038;-75
2023/11/06 01:24:57;;;;;;;3.95;1.50;;;10.70;99.90;;;;;;2050362;28;20027;-75
2023/11/06 01:25:58;;;;;;;2.13;1.45;;;10.70;99.90;;;;;;2055206;28;20053;-74
2023/11/06 01:26:58;;;;;;;4.40;1.30;;;10.70;99.90;;;;;;2053827;28;20026;-74
2023/11/06 01:27:59;;;;;;;3.22;1.52;;;10.70;99.90;;;;;;2059934;28;20509;-74
2023/11/06 01:29:00;;;;;;;5.10;1.50;;;10.70;99.90;;;;;;2066575;28;20293;-74
2023/11/06 01:30:00;;;;;;;2.85;1.20;;;10.70;99.90;;;;;;2067506;28;20030;-75
2023/11/06 01:31:02;;;;;;;2.25;1.20;;;10.60;99.90;;;;;;2068016;28;20492;-74
2023/11/06 01:32:05;;;;;;;3.53;1.38;;;10.60;99.90;;;;;;2060961;28;20022;-73
2023/11/06 01:33:06;;;;;;;4.30;1.30;;;10.60;99.90;;;;;;2064001;28;20033;-73
2023/11/06 01:34:07;;;;;;;5.10;1.30;;;10.60;99.90;;;;;;2063701;28;20404;-73
2023/11/06 01:35:07;;;;;;;3.35;1.40;;;10.60;99.90;;;;;;2064249;28;20027;-74
2023/11/06 01:36:09;;;;;;;3.70;1.40;;;10.60;99.90;;;;;;2059266;28;20221;-73
2023/11/06 01:37:09;;;;;;;4.18;1.40;;;10.60;99.90;;;;;;2059460;28;20022;-74
2023/11/06 01:38:10;;;;;;;1.90;1.30;;;10.60;99.90;;;;;;2067258;28;20029;-74
2023/11/06 01:39:11;;;;;;;3.78;1.30;;;10.60;99.90;;;;;;2067813;28;20174;-74
2023/11/06 01:40:12;;;;;;;3.17;1.30;;;10.50;99.90;;;;;;2055638;28;20027;-74
2023/11/06 01:41:13;;;;;;;5.07;1.40;;;10.60;99.90;;;;;;2059194;28;20026;-73
2023/11/06 01:42:13;;;;;;;5.70;1.30;;;10.50;99.90;;;;;;2062801;28;20680;-73
2023/11/06 01:43:24;;;;;;;1.88;1.33;;;10.50;99.90;;;;;;2067104;28;20026;-74
2023/11/06 01:44:25;;;;;;;;;;;10.50;99.90;;;;;;2062130;28;20022;-74
2023/11/06 01:45:25;;;;;;;3.90;1.48;;;10.50;99.90;;;;;;2061256;28;19949;-74
2023/11/06 01:46:27;;;;;;;4.60;1.73;;;10.50;99.90;;;;;;2061032;28;20030;-73
2023/11/06 01:47:29;;;;;;;3.58;1.30;;;10.50;99.90;;;;;;2063776;28;20061;-73
2023/11/06 01:48:30;;;;;;;3.60;1.48;;;10.50;99.90;;;;;;2065388;28;20532;-73
2023/11/06 01:49:31;;;;;;;4.80;1.40;;;10.50;99.90;;;;;;2067138;28;20373;-73
2023/11/06 01:50:36;;;;;;;3.47;1.52;;;10.60;99.90;;;;;;2067799;28;20060;-72
2023/11/06 01:51:40;;;;;;;3.22;1.30;;;10.60;99.90;;;;;;2063087;28;20033;-73
2023/11/06 01:52:42;;;;;;;6.50;1.40;;;10.60;99.90;;;;;;2058640;28;20424;-73
2023/11/06 01:53:43;;;;;;;2.15;1.33;;;10.60;99.90;;;;;;2055702;28;20524;-74
2023/11/06 01:54:44;;;;;;;2.75;1.52;;;10.60;99.90;;;;;;2063257;28;20058;-74
2023/11/06 01:55:45;;;;;;;3.90;1.63;;;10.60;99.90;;;;;;2061670;28;20101;-73
2023/11/06 01:56:46;;;;;;;3.40;1.33;;;10.50;99.90;;;;;;2059157;28;20238;-74
2023/11/06 01:57:47;;;;;;;6.10;1.60;;;10.60;99.90;;;;;;2050734;28;20075;-74
2023/11/06 01:58:48;;;;;;;3.63;1.40;;;10.60;99.90;;;;;;2050805;28;20121;-74
2023/11/06 01:59:48;;;;;;;5.70;1.50;;;10.60;99.90;;;;;;2059217;28;20037;-74
2023/11/06 02:00:52;;;;;;;6.45;1.50;;;10.70;99.90;;;;;;2050826;28;20413;-74
2023/11/06 02:01:58;;;;;;;3.85;1.40;;;10.60;99.90;;;;;;2051613;28;20133;-73
2023/11/06 02:03:00;;;;;;;3.40;1.30;;;10.70;99.90;;;;;;2067062;28;20188;-73
2023/11/06 02:04:03;;;;;;;5.38;1.60;;;10.70;99.90;;;;;;2067640;28;20061;-73
2023/11/06 02:05:05;;;;;;;4.72;1.25;;;10.70;99.90;;;;;;2064257;28;20036;-73
2023/11/06 02:06:06;;;;;;;3.53;1.30;;;10.60;99.90;;;;;;2059000;28;20400;-73
2023/11/06 02:07:07;;;;;;;4.80;1.30;;;10.70;99.90;;;;;;2058568;28;20018;-74
2023/11/06 02:08:08;;;;;;;4.72;1.38;;;10.70;99.90;;;;;;2054900;28;20143;-74
2023/11/06 02:09:09;;;;;;;3.47;1.45;;;10.70;99.90;;;;;;2051112;28;20511;-73
2023/11/06 02:10:11;;;;;;;3.33;1.13;;;10.70;99.90;;;;;;2055754;28;20075;-73
2023/11/06 02:11:12;;;;;;;2.67;1.40;;;10.70;99.90;;;;;;2058448;28;20388;-74
2023/11/06 02:12:13;;;;;;;3.33;1.50;;;10.60;99.90;;;;;;2055253;28;20022;-74
2023/11/06 02:13:14;;;;;;;2.63;1.35;;;10.60;99.90;;;;;;2054664;28;20109;-74
2023/11/06 02:14:15;;;;;;;2.35;1.35;;;10.60;99.90;;;;;;2058403;28;20015;-74
2023/11/06 02:15:15;;;;;;;5.07;1.33;;;10.60;99.90;;;;;;2055432;28;20057;-74
2023/11/06 02:16:16;;;;;;;3.20;1.25;;;10.60;99.90;;;;;;2063054;28;20033;-74
2023/11/06 02:17:17;;;;;;;2.13;1.48;;;10.60;99.90;;;;;;2066078;28;20026;-74
2023/11/06 02:18:17;;;;;;;3.55;1.40;;;10.70;99.90;;;;;;2055795;28;20048;-74
2023/11/06 02:19:18;;;;;;;4.25;1.23;;;10.70;99.90;;;;;;2058772;28;20033;-73
2023/11/06 02:20:18;;;;;;;5.60;1.52;;;10.70;99.90;;;;;;2066444;28;20287;-74
2023/11/06 02:21:19;;;;;;;5.03;1.50;;;10.60;99.90;;;;;;2060733;28;20042;-75
2023/11/06 02:22:21;;;;;;;4.25;1.23;;;10.70;99.90;;;;;;2065536;28;20069;-73
2023/11/06 02:23:24;;;;;;;4.28;1.42;;;10.70;99.90;;;;;;2064033;28;20021;-73
2023/11/06 02:24:25;;;;;;;2.65;1.40;;;10.70;99.90;;;;;;2067050;28;20034;-73
2023/11/06 02:25:26;;;;;;;3.42;1.23;;;10.70;99.90;;;;;;2066866;28;20121;-74
2023/11/06 02:26:27;;;;;;;5.28;1.38;;;10.70;99.90;;;;;;2061553;28;20022;-73
2023/11/06 02:27:28;;;;;;;2.97;1.27;;;10.70;99.90;;;;;;2056567;28;20036;-75
2023/11/06 02:28:29;;;;;;;3.00;1.33;;;10.70;99.90;;;;;;2053265;28;20070;-73
2023/11/06 02:29:29;;;;;;;3.38;1.30;;;10.80;99.90;;;;;;2059666;28;20073;-73
2023/11/06 02:30:31;;;;;;;3.10;1.15;;;10.80;99.90;;;;;;2063267;28;20026;-73
2023/11/06 02:31:31;;;;;;;5.05;1.30;;;10.80;99.90;;;;;;2066182;28;20072;-74
2023/11/06 02:32:32;;;;;;;3.20;1.40;;;10.80;99.90;;;;;;2062840;28;20044;-73
2023/11/06 02:33:32;;;;;;;3.88;1.40;;;10.90;99.90;;;;;;2062976;28;20492;-73
2023/11/06 02:34:44;;;;;;;4.82;1.33;;;10.90;99.90;;;;;;2066193;28;20084;-74
2023/11/06 02:35:45;;;;;;;3.47;1.35;;;10.90;99.90;;;;;;2058290;28;20030;-75
2023/11/06 02:36:46;;;;;;;5.93;1.33;;;10.90;99.90;;;;;;2046774;28;20070;-72
2023/11/06 02:37:46;;;;;;;3.78;1.33;;;11.00;99.90;;;;;;2058759;28;20311;-75
2023/11/06 02:38:47;;;;;;;3.22;1.15;;;11.00;99.90;;;;;;2054785;28;20077;-73
2023/11/06 02:39:49;;;;;;;4.88;1.50;;;11.00;99.90;;;;;;2066123;28;20556;-74
2023/11/06 02:40:49;;;;;;;4.00;1.38;;;11.00;99.90;;;;;;2066956;28;20489;-73
2023/11/06 02:41:50;;;;;;;3.40;1.30;;;11.10;99.90;;;;;;2067802;28;20033;-74
2023/11/06 02:42:50;;;;;;;3.35;1.33;;;11.10;99.90;;;;;;2063464;28;20058;-75
2023/11/06 02:43:51;;;;;;;2.65;1.23;;;11.10;99.90;;;;;;2059700;28;20034;-75
2023/11/06 02:44:53;;;;;;;2.95;1.10;;;11.10;99.90;;;;;;2061591;28;20556;-75
2023/11/06 02:45:55;;;;;;;3.58;1.20;;;11.10;99.90;;;;;;2067526;28;20049;-74
2023/11/06 02:46:56;;;;;;;3.55;1.20;;;11.10;99.90;;;;;;2067377;28;20030;-74
2023/11/06 02:47:56;;;;;;;4.45;1.40;;;11.10;99.90;;;;;;2067753;28;20025;-74
2023/11/06 02:48:58;;;;;;;3.60;1.27;;;11.10;99.90;;;;;;2061584;28;20034;-75
2023/11/06 02:49:59;;;;;;;3.33;1.15;;;11.10;99.90;;;;;;2061555;28;20475;-74
2023/11/06 02:50:59;;;;;;;2.08;1.15;;;11.10;99.90;;;;;;2061682;28;20098;-73
2023/11/06 02:52:00;;;;;;;2.85;1.10;;;11.10;99.90;;;;;;2065767;28;20480;-74
2023/11/06 02:53:00;;;;;;;2.85;1.20;;;11.10;99.90;;;;;;2062941;28;20378;-74
2023/11/06 02:54:03;;;;;;;4.47;1.40;;;11.10;99.90;;;;;;2060855;28;20437;-75
2023/11/06 02:55:04;;;;;;;3.15;1.10;;;11.10;99.90;;;;;;2066481;28;20017;-73
2023/11/06 02:56:06;;;;;;;1.88;1.17;;;11.10;99.90;;;;;;2058298;28;20038;-74
2023/11/06 02:57:07;;;;;;;3.13;1.23;;;11.10;99.90;;;;;;2058860;28;20024;-73
2023/11/06 02:58:08;;;;;;;1.80;1.00;;;11.10;99.90;;;;;;2064077;28;20100;-73
2023/11/06 02:59:09;;;;;;;1.48;1.00;;;11.10;99.90;;;;;;2066452;28;20323;-74
2023/11/06 03:00:11;;;;;;;2.72;1.20;;;11.10;99.90;;;;;;2064275;28;20041;-73
2023/11/06 03:01:12;;;;;;;1.80;1.10;;;11.00;99.90;;;;;;2059269;28;20096;-73
2023/11/06 03:02:12;;;;;;;1.88;1.20;;;11.00;99.90;;;;;;2058696;28;20030;-73
2023/11/06 03:03:13;;;;;;;3.55;1.40;;;11.00;99.90;;;;;;2055917;28;20504;-75
2023/11/06 03:04:14;;;;;;;2.42;1.20;;;10.90;99.90;;;;;;2062608;28;20030;-74
2023/11/06 03:05:14;;;;;;;3.78;1.30;;;11.00;99.90;;;;;;2061921;28;20508;-73
2023/11/06 03:06:15;;;;;;;1.73;1.15;;;11.00;99.90;;;;;;2061454;28;20026;-74
2023/11/06 03:07:16;;;;;;;3.60;1.20;;;10.90;99.90;;;;;;2054413;28;20019;-81
2023/11/06 03:08:17;;;;;;;1.85;1.17;;;11.00;99.90;;;;;;2051009;28;20090;-82
2023/11/06 03:09:18;;;;;;;3.63;1.23;;;11.00;99.90;;;;;;2058689;28;20031;-76
2023/11/06 03:10:19;;;;;;;2.20;1.13;;;10.90;99.90;;;;;;2055330;28;20727;-76
2023/11/06 03:11:21;;;;;;;3.33;1.17;;;10.90;99.90;;;;;;2057610;28;20476;-76
2023/11/06 03:12:21;;;;;;;4.38;1.10;;;10.90;99.90;;;;;;2063302;28;20030;-75
2023/11/06 03:13:22;;;;;;;2.42;1.05;;;10.80;99.90;;;;;;2060272;28;20500;-75
2023/11/06 03:14:22;;;;;;;2.10;1.00;;;10.90;99.90;;;;;;2066048;28;20042;-76
2023/11/06 03:15:23;;;;;;;2.40;1.15;;;10.90;99.90;;;;;;2063283;28;20026;-76
2023/11/06 03:16:24;;;;;;;3.13;1.20;;;10.80;99.90;;;;;;2064637;28;20029;-76
2023/11/06 03:17:24;;;;;;;1.83;1.10;;;10.80;99.90;;;;;;2063188;28;20034;-75
2023/11/06 03:18:25;;;;;;;3.65;1.27;;;10.80;99.90;;;;;;2062357;28;20409;-75
2023/11/06 03:19:25;;;;;;;3.63;1.30;;;10.80;99.90;;;;;;2066668;28;20037;-76
2023/11/06 03:20:26;;;;;;;4.82;1.30;;;10.70;99.90;;;;;;2066145;28;20030;-76
2023/11/06 03:21:27;;;;;;;5.75;1.30;;;10.70;99.90;;;;;;2066332;28;20459;-75
2023/11/06 03:22:27;;;;;;;3.58;1.60;;;10.70;99.90;;;;;;2058656;28;20061;-76
2023/11/06 03:23:28;;;;;;;4.47;1.23;;;10.70;99.90;;;;;;2052386;28;20093;-77
2023/11/06 03:24:28;;;;;;;2.95;1.10;;;10.60;99.90;;;;;;2056308;28;20041;-75
2023/11/06 03:25:29;;;;;;;2.97;1.30;;;10.70;99.90;;;;;;2058530;28;20515;-75
2023/11/06 03:26:29;;;;;;;2.95;1.23;;;10.60;99.90;;;;;;2058268;28;20037;-75
2023/11/06 03:27:30;;;;;;;2.85;1.10;;;10.60;99.90;;;;;;2057986;28;20023;-76
2023/11/06 03:28:32;;;;;;;2.38;1.20;;;10.60;99.90;;;;;;2060382;28;20522;-75
2023/11/06 03:29:32;;;;;;;2.05;0.90;;;10.70;99.90;;;;;;2066420;28;20034;-77
2023/11/06 03:30:33;;;;;;;2.35;1.02;;;10.70;99.90;;;;;;2058092;28;20678;-76
2023/11/06 03:31:34;;;;;;;2.80;1.13;;;10.60;99.90;;;;;;2054320;28;20442;-75
2023/11/06 03:32:34;;;;;;;2.65;1.20;;;10.60;99.90;;;;;;2053034;28;20465;-76
2023/11/06 03:33:35;;;;;;;3.63;1.10;;;10.60;99.90;;;;;;2059715;28;20030;-75
2023/11/06 03:34:35;;;;;;;3.85;1.20;;;10.60;99.90;;;;;;2063097;28;20475;-76
2023/11/06 03:35:36;;;;;;;3.05;1.10;;;10.50;99.90;;;;;;2066446;28;20484;-74
2023/11/06 03:36:45;;;;;;;2.97;1.10;;;10.60;99.90;;;;;;2064062;28;20026;-77
2023/11/06 03:37:46;;;;;;;2.78;1.10;;;10.60;99.90;;;;;;2062794;28;20299;-75
2023/11/06 03:38:46;;;;;;;3.40;1.17;;;10.50;99.90;;;;;;2057572;28;20049;-75
2023/11/06 03:39:47;;;;;;;4.63;1.25;;;10.50;99.90;;;;;;2054334;28;20444;-75
2023/11/06 03:40:47;;;;;;;2.92;1.10;;;10.50;99.90;;;;;;2059778;28;20520;-75
2023/11/06 03:41:48;;;;;;;3.72;1.48;;;10.40;99.90;;;;;;2062796;28;20026;-74
2023/11/06 03:42:49;;;;;;;3.72;1.40;;;10.50;99.90;;;;;;2063139;28;20487;-75
2023/11/06 03:43:51;;;;;;;2.97;1.10;;;10.50;99.90;;;;;;2058656;28;20034;-76
2023/11/06 03:44:52;;;;;;;3.58;1.15;;;10.50;99.90;;;;;;2054788;28;20291;-75
2023/11/06 03:45:53;;;;;;;3.33;1.20;;;10.40;99.90;;;;;;2056744;28;20049;-75
2023/11/06 03:46:53;;;;;;;3.95;1.42;;;10.40;99.90;;;;;;2056978;28;20023;-75
2023/11/06 03:47:54;;;;;;;4.35;1.30;;;10.40;99.90;;;;;;2062100;28;20027;-75
2023/11/06 03:48:55;;;;;;;3.33;1.25;;;10.40;99.90;;;;;;2065942;28;20627;-75
2023/11/06 03:49:55;;;;;;;2.40;1.15;;;10.50;99.90;;;;;;2059982;28;20460;-76
2023/11/06 03:50:56;;;;;;;2.58;1.20;;;10.50;99.90;;;;;;2065623;28;20057;-74
2023/11/06 03:51:56;;;;;;;5.55;1.40;;;10.50;99.90;;;;;;2058049;28;20117;-76
2023/11/06 03:52:57;;;;;;;5.05;1.40;;;10.40;99.90;;;;;;2056000;28;20161;-75
2023/11/06 03:53:58;;;;;;;4.35;1.42;;;10.50;99.90;;;;;;2063888;28;20480;-76
2023/11/06 03:54:58;;;;;;;2.40;1.15;;;10.50;99.90;;;;;;2066058;28;20033;-75
2023/11/06 03:55:59;;;;;;;3.78;1.27;;;10.50;99.90;;;;;;2056241;28;20321;-76
2023/11/06 03:56:59;;;;;;;4.53;1.30;;;10.50;99.90;;;;;;2057973;28;20031;-74
2023/11/06 03:58:00;;;;;;;4.18;1.20;;;10.50;99.90;;;;;;2066153;28;20018;-75
2023/11/06 03:59:01;;;;;;;1.98;0.98;;;10.50;99.90;;;;;;2066294;28;20029;-76
2023/11/06 04:00:02;;;;;;;4.70;1.27;;;10.50;99.90;;;;;;2058131;28;20042;-76
2023/11/06 04:01:11;;;;;;;3.53;1.20;;;10.50;99.90;;;;;;2056247;28;20118;-74
2023/11/06 04:02:12;;;;;;;3.03;1.35;;;10.50;99.90;;;;;;2066420;28;20029;-74
2023/11/06 04:03:13;;;;;;;3.08;1.40;;;10.50;99.90;;;;;;2062400;28;20044;-76
2023/11/06 04:04:13;;;;;;;3.20;1.38;;;10.50;99.90;;;;;;2053733;28;20480;-75
2023/11/06 04:05:14;;;;;;;3.97;1.20;;;10.50;99.90;;;;;;2050165;28;20485;-74
2023/11/06 04:06:15;;;;;;;4.03;1.33;;;10.50;99.90;;;;;;2052786;28;20461;-75
2023/11/06 04:07:16;;;;;;;4.18;1.52;;;10.40;99.90;;;;;;2058597;28;20053;-75
2023/11/06 04:08:16;;;;;;;3.20;1.30;;;10.40;99.90;;;;;;2054008;28;20404;-75
2023/11/06 04:09:17;;;;;;;4.00;1.30;;;10.50;99.90;;;;;;2054429;28;20061;-75
2023/11/06 04:10:18;;;;;;;3.60;1.38;;;10.40;99.90;;;;;;2062855;28;20036;-75
2023/11/06 04:11:19;;;;;;;2.58;1.15;;;10.40;99.90;;;;;;2066703;28;20058;-75
2023/11/06 04:12:21;;;;;;;3.05;1.20;;;10.40;99.90;;;;;;2066287;28;20113;-75
2023/11/06 04:13:22;;;;;;;4.70;1.40;;;10.30;99.90;;;;;;2050769;28;20041;-75
2023/11/06 04:14:23;;;;;;;4.18;1.40;;;10.30;99.90;;;;;;2057069;28;20061;-76
2023/11/06 04:15:24;;;;;;;3.38;1.50;;;10.30;99.90;;;;;;2058843;28;20033;-75
2023/11/06 04:16:25;;;;;;;4.25;1.30;;;10.20;99.90;;;;;;2061944;28;20027;-76
2023/11/06 04:17:26;;;;;;;3.72;1.30;;;10.20;99.90;;;;;;2056508;28;20105;-75
2023/11/06 04:18:27;;;;;;;4.75;1.42;;;10.20;99.90;;;;;;2055418;28;20038;-76
2023/11/06 04:19:27;;;;;;;4.35;1.20;;;10.20;99.90;;;;;;2049883;28;20130;-75
2023/11/06 04:20:28;;;;;;;2.88;1.13;;;10.20;99.90;;;;;;2057776;28;20041;-76
2023/11/06 04:21:28;;;;;;;2.30;1.23;;;10.20;99.90;;;;;;2058035;28;20500;-76
2023/11/06 04:22:29;;;;;;;1.92;1.20;;;10.20;99.90;;;;;;2053966;28;20097;-75
2023/11/06 04:23:29;;;;;;;5.15;1.20;;;10.20;99.90;;;;;;2062427;28;20110;-76
2023/11/06 04:24:30;;;;;;;4.88;1.40;;;10.10;99.90;;;;;;2067050;28;20542;-78
2023/11/06 04:25:30;;;;;;;2.95;1.30;;;10.20;99.90;;;;;;2066063;28;20080;-76
2023/11/06 04:26:31;;;;;;;4.03;1.40;;;10.10;99.90;;;;;;2057798;28;20057;-74
2023/11/06 04:27:32;;;;;;;7.20;1.52;;;10.10;99.90;;;;;;2056259;28;20054;-74
2023/11/06 04:28:32;;;;;;;5.63;1.42;;;10.20;99.90;;;;;;2064498;28;20558;-74
2023/11/06 04:29:33;;;;;;;5.85;1.40;;;10.10;99.90;;;;;;2065043;28;20065;-75
2023/11/06 04:30:33;;;;;;;2.65;1.30;;;10.10;99.90;;;;;;2066835;28;20041;-75
2023/11/06 04:31:34;;;;;;;2.83;1.38;;;10.20;99.90;;;;;;2062745;28;20084;-75
2023/11/06 04:32:35;;;;;;;2.05;1.40;;;10.10;99.90;;;;;;2067417;28;20141;-75
2023/11/06 04:33:35;;;;;;;5.55;1.40;;;10.20;99.90;;;;;;2067643;28;20030;-76
2023/11/06 04:34:36;;;;;;;3.17;1.20;;;10.20;99.90;;;;;;2066368;28;20640;-76
2023/11/06 04:35:36;;;;;;;3.63;1.35;;;10.20;99.90;;;;;;2065147;28;20291;-76
2023/11/06 04:36:37;;;;;;;4.07;1.33;;;10.20;99.90;;;;;;2065207;28;20125;-75
2023/11/06 04:37:39;;;;;;;2.33;1.40;;;10.20;99.90;;;;;;2064004;28;20101;-76
2023/11/06 04:38:40;;;;;;;3.35;1.48;;;10.20;99.90;;;;;;2058814;28;20668;-76
2023/11/06 04:39:42;;;;;;;4.18;1.30;;;10.20;99.90;;;;;;2062007;28;20053;-75
2023/11/06 04:40:42;;;;;;;5.32;1.40;;;10.20;99.90;;;;;;2066329;28;20396;-75
2023/11/06 04:41:44;;;;;;;6.05;1.30;;;10.20;99.90;;;;;;2062655;28;20038;-75
2023/11/06 04:42:46;;;;;;;4.35;1.20;;;10.20;99.90;;;;;;2062528;28;20149;-75
2023/11/06 04:43:47;;;;;;;5.90;1.30;;;10.20;99.90;;;;;;2062141;28;20378;-75
2023/11/06 04:44:48;;;;;;;8.95;1.50;;;10.20;99.90;;;;;;2057720;28;20030;-74
2023/11/06 04:45:49;;;;;;;3.33;1.20;;;10.20;99.90;;;;;;2057597;28;20116;-75
2023/11/06 04:46:50;;;;;;;5.70;1.40;;;10.20;99.90;;;;;;2062453;28;20064;-75
2023/11/06 04:47:50;;;;;;;4.90;1.25;;;10.20;99.90;;;;;;2054194;28;20032;-76
2023/11/06 04:48:51;;;;;;;4.13;1.52;;;10.30;99.90;;;;;;2057745;28;20363;-75
2023/11/06 04:49:51;;;;;;;3.28;1.50;;;10.30;99.90;;;;;;2058688;28;20113;-75
2023/11/06 04:50:52;;;;;;;5.15;1.67;;;10.30;99.90;;;;;;2062490;28;20044;-75
2023/11/06 04:51:53;;;;;;;3.88;1.73;;;10.30;99.90;;;;;;2063167;28;20231;-75
2023/11/06 04:52:54;;;;;;;5.65;1.60;;;10.30;99.90;;;;;;2065886;28;20030;-75
2023/11/06 04:53:55;;;;;;;3.20;1.50;;;10.30;99.90;;;;;;2062508;28;20392;-75
2023/11/06 04:54:56;;;;;;;3.78;1.52;;;10.30;99.90;;;;;;2059467;28;20026;-75
2023/11/06 04:55:56;;;;;;;2.90;1.40;;;10.30;99.90;;;;;;2066858;28;20080;-75
2023/11/06 04:56:57;;;;;;;5.22;1.40;;;10.20;99.90;;;;;;2065907;28;20128;-75
2023/11/06 04:57:57;;;;;;;4.68;1.40;;;10.20;99.90;;;;;;2063053;28;20088;-75
2023/11/06 04:58:58;;;;;;;4.70;1.70;;;10.20;99.90;;;;;;2063524;28;20398;-75
2023/11/06 04:59:58;;;;;;;3.92;1.58;;;10.20;99.90;;;;;;2060781;28;20096;-75
2023/11/06 05:00:59;;;;;;;4.30;1.40;;;10.20;99.90;;;;;;2059135;28;20037;-76
2023/11/06 05:01:59;;;;;;;5.50;1.38;;;10.10;99.90;;;;;;2055445;28;20038;-75
2023/11/06 05:03:00;;;;;;;8.57;1.50;;;10.10;99.90;;;;;;2064046;28;20526;-76
2023/11/06 05:04:00;;;;;;;4.13;1.25;;;10.20;99.90;;;;;;2061599;28;20034;-75
2023/11/06 05:05:01;;;;;;;4.85;1.40;;;10.10;99.90;;;;;;2066180;28;20170;-74
2023/11/06 05:06:02;;;;;;;3.47;1.33;;;10.10;99.90;;;;;;2060212;28;20033;-75
2023/11/06 05:07:04;;;;;;;3.90;1.35;;;10.10;99.90;;;;;;2058570;28;20153;-75
2023/11/06 05:08:05;;;;;;;4.32;1.40;;;10.10;99.90;;;;;;2059438;28;20030;-75
2023/11/06 05:09:05;;;;;;;7.07;1.50;;;10.10;99.90;;;;;;2057264;28;20065;-75
2023/11/06 05:10:07;;;;;;;5.90;1.42;;;10.10;99.90;;;;;;2057740;28;20527;-74
2023/11/06 05:11:07;;;;;;;3.50;1.35;;;10.10;99.90;;;;;;2065535;28;20140;-76
2023/11/06 05:12:08;;;;;;;4.32;1.30;;;10.00;99.90;;;;;;2066830;28;20538;-76
2023/11/06 05:13:09;;;;;;;3.97;1.40;;;10.00;99.90;;;;;;2067501;28;20180;-76
2023/11/06 05:14:09;;;;;;;4.25;1.20;;;10.00;99.90;;;;;;2066907;28;20480;-75
2023/11/06 05:15:10;;;;;;;3.67;1.40;;;10.00;99.90;;;;;;2067788;28;20045;-75
2023/11/06 05:16:10;;;;;;;3.95;1.42;;;10.00;99.90;;;;;;2067623;28;20057;-74
2023/11/06 05:17:11;;;;;;;5.28;1.50;;;10.00;99.90;;;;;;2063629;28;20130;-75
2023/11/06 05:18:12;;;;;;;3.38;1.40;;;10.00;99.90;;;;;;2067884;28;20650;-74